sensor_id;sensor_type;location;lat;lon;timestamp;temperature;humidity
63317;DHT22;49822;41.468;13.560;2024-02-21T00:00:07;8.90;76.90
63317;DHT22;49822;41.468;13.560;2024-02-21T00:02:33;8.90;77.20
63317;DHT22;49822;41.468;13.560;2024-02-21T00:04:59;8.80;77.00
63317;DHT22;49822;41.468;13.560;2024-02-21T00:07:25;8.60;77.10
63317;DHT22;49822;41.468;13.560;2024-02-21T00:09:51;8.40;77.40
63317;DHT22;49822;41.468;13.560;2024-02-21T00:12:17;8.00;78.30
63317;DHT22;49822;41.468;13.560;2024-02-21T00:14:44;8.00;78.60
63317;DHT22;49822;41.468;13.560;2024-02-21T00:17:10;8.00;78.60
63317;DHT22;49822;41.468;13.560;2024-02-21T00:19:36;8.30;78.50
63317;DHT22;49822;41.468;13.560;2024-02-21T00:22:03;8.30;78.50
63317;DHT22;49822;41.468;13.560;2024-02-21T00:24:29;8.30;78.50
63317;DHT22;49822;41.468;13.560;2024-02-21T00:26:56;8.40;78.20
63317;DHT22;49822;41.468;13.560;2024-02-21T00:29:22;8.30;77.60
63317;DHT22;49822;41.468;13.560;2024-02-21T00:31:49;8.50;77.60
63317;DHT22;49822;41.468;13.560;2024-02-21T00:34:15;8.20;77.60
63317;DHT22;49822;41.468;13.560;2024-02-21T00:36:41;8.10;77.80
63317;DHT22;49822;41.468;13.560;2024-02-21T00:39:08;8.10;78.20
63317;DHT22;49822;41.468;13.560;2024-02-21T00:41:34;8.20;78.20
63317;DHT22;49822;41.468;13.560;2024-02-21T00:44:00;8.30;78.00
63317;DHT22;49822;41.468;13.560;2024-02-21T00:46:26;8.40;77.90
63317;DHT22;49822;41.468;13.560;2024-02-21T00:48:52;8.40;77.70
63317;DHT22;49822;41.468;13.560;2024-02-21T00:51:18;8.50;77.80
63317;DHT22;49822;41.468;13.560;2024-02-21T00:53:45;8.60;77.80
63317;DHT22;49822;41.468;13.560;2024-02-21T00:56:11;8.50;77.40
63317;DHT22;49822;41.468;13.560;2024-02-21T00:58:37;8.10;77.80
63317;DHT22;49822;41.468;13.560;2024-02-21T01:01:03;8.10;78.30
63317;DHT22;49822;41.468;13.560;2024-02-21T01:03:29;8.10;78.30
63317;DHT22;49822;41.468;13.560;2024-02-21T01:05:55;8.10;78.40
63317;DHT22;49822;41.468;13.560;2024-02-21T01:08:22;8.10;78.00
63317;DHT22;49822;41.468;13.560;2024-02-21T01:10:48;8.20;78.20
63317;DHT22;49822;41.468;13.560;2024-02-21T01:13:14;8.20;78.20
63317;DHT22;49822;41.468;13.560;2024-02-21T01:15:42;8.40;78.10
63317;DHT22;49822;41.468;13.560;2024-02-21T01:18:08;8.20;77.90
63317;DHT22;49822;41.468;13.560;2024-02-21T01:20:34;8.10;78.30
63317;DHT22;49822;41.468;13.560;2024-02-21T01:23:00;8.30;78.50
63317;DHT22;49822;41.468;13.560;2024-02-21T01:25:26;8.20;78.30
63317;DHT22;49822;41.468;13.560;2024-02-21T01:27:52;8.40;77.70
63317;DHT22;49822;41.468;13.560;2024-02-21T01:30:18;8.20;77.50
63317;DHT22;49822;41.468;13.560;2024-02-21T01:32:44;8.10;78.00
63317;DHT22;49822;41.468;13.560;2024-02-21T01:35:11;8.10;78.20
63317;DHT22;49822;41.468;13.560;2024-02-21T01:37:37;8.20;78.10
63317;DHT22;49822;41.468;13.560;2024-02-21T01:40:03;8.10;78.10
63317;DHT22;49822;41.468;13.560;2024-02-21T01:42:30;8.20;78.00
63317;DHT22;49822;41.468;13.560;2024-02-21T01:44:56;8.10;78.10
63317;DHT22;49822;41.468;13.560;2024-02-21T01:47:22;8.10;77.80
63317;DHT22;49822;41.468;13.560;2024-02-21T01:49:49;8.10;78.10
63317;DHT22;49822;41.468;13.560;2024-02-21T01:52:16;8.20;78.50
63317;DHT22;49822;41.468;13.560;2024-02-21T01:54:44;7.80;78.00
63317;DHT22;49822;41.468;13.560;2024-02-21T01:57:10;7.60;78.60
63317;DHT22;49822;41.468;13.560;2024-02-21T01:59:37;7.60;78.80
63317;DHT22;49822;41.468;13.560;2024-02-21T02:02:03;7.30;79.20
63317;DHT22;49822;41.468;13.560;2024-02-21T02:04:29;7.30;79.30
63317;DHT22;49822;41.468;13.560;2024-02-21T02:06:55;7.10;79.50
63317;DHT22;49822;41.468;13.560;2024-02-21T02:09:22;7.30;79.90
63317;DHT22;49822;41.468;13.560;2024-02-21T02:11:48;7.20;80.10
63317;DHT22;49822;41.468;13.560;2024-02-21T02:14:14;7.60;79.90
63317;DHT22;49822;41.468;13.560;2024-02-21T02:16:40;7.50;79.30
63317;DHT22;49822;41.468;13.560;2024-02-21T02:19:06;7.50;78.80
63317;DHT22;49822;41.468;13.560;2024-02-21T02:21:39;7.40;79.50
63317;DHT22;49822;41.468;13.560;2024-02-21T02:24:06;7.50;79.90
63317;DHT22;49822;41.468;13.560;2024-02-21T02:26:32;7.40;79.80
63317;DHT22;49822;41.468;13.560;2024-02-21T02:28:58;7.60;79.70
63317;DHT22;49822;41.468;13.560;2024-02-21T02:31:24;7.70;79.80
63317;DHT22;49822;41.468;13.560;2024-02-21T02:33:51;7.70;79.20
63317;DHT22;49822;41.468;13.560;2024-02-21T02:36:16;7.70;78.70
63317;DHT22;49822;41.468;13.560;2024-02-21T02:38:44;7.40;78.90
63317;DHT22;49822;41.468;13.560;2024-02-21T02:41:10;7.10;79.60
63317;DHT22;49822;41.468;13.560;2024-02-21T02:43:36;7.10;79.80
63317;DHT22;49822;41.468;13.560;2024-02-21T02:46:04;7.20;80.00
63317;DHT22;49822;41.468;13.560;2024-02-21T02:48:30;7.30;80.20
63317;DHT22;49822;41.468;13.560;2024-02-21T02:50:56;7.40;80.10
63317;DHT22;49822;41.468;13.560;2024-02-21T02:53:22;7.50;79.80
63317;DHT22;49822;41.468;13.560;2024-02-21T02:55:49;7.50;79.60
63317;DHT22;49822;41.468;13.560;2024-02-21T02:58:15;7.60;79.40
63317;DHT22;49822;41.468;13.560;2024-02-21T03:00:42;7.50;79.30
63317;DHT22;49822;41.468;13.560;2024-02-21T03:03:09;7.40;78.90
63317;DHT22;49822;41.468;13.560;2024-02-21T03:05:35;7.20;79.30
63317;DHT22;49822;41.468;13.560;2024-02-21T03:08:01;6.90;79.70
63317;DHT22;49822;41.468;13.560;2024-02-21T03:10:28;6.80;80.50
63317;DHT22;49822;41.468;13.560;2024-02-21T03:12:54;6.80;80.50
63317;DHT22;49822;41.468;13.560;2024-02-21T03:15:21;6.60;80.50
63317;DHT22;49822;41.468;13.560;2024-02-21T03:17:49;6.50;80.50
63317;DHT22;49822;41.468;13.560;2024-02-21T03:20:15;6.50;80.70
63317;DHT22;49822;41.468;13.560;2024-02-21T03:22:41;6.20;81.50
63317;DHT22;49822;41.468;13.560;2024-02-21T03:25:11;6.30;81.80
63317;DHT22;49822;41.468;13.560;2024-02-21T03:27:38;6.40;82.10
63317;DHT22;49822;41.468;13.560;2024-02-21T03:30:05;6.50;81.50
63317;DHT22;49822;41.468;13.560;2024-02-21T03:32:32;6.60;81.40
63317;DHT22;49822;41.468;13.560;2024-02-21T03:34:58;6.50;81.00
63317;DHT22;49822;41.468;13.560;2024-02-21T03:37:24;6.40;81.00
63317;DHT22;49822;41.468;13.560;2024-02-21T03:39:50;6.60;81.30
63317;DHT22;49822;41.468;13.560;2024-02-21T03:42:16;6.80;81.10
63317;DHT22;49822;41.468;13.560;2024-02-21T03:44:42;6.70;80.70
63317;DHT22;49822;41.468;13.560;2024-02-21T03:47:08;6.40;80.60
63317;DHT22;49822;41.468;13.560;2024-02-21T03:49:36;6.60;81.00
63317;DHT22;49822;41.468;13.560;2024-02-21T03:52:03;6.40;80.90
63317;DHT22;49822;41.468;13.560;2024-02-21T03:54:31;6.20;81.80
63317;DHT22;49822;41.468;13.560;2024-02-21T03:56:57;6.30;82.20
63317;DHT22;49822;41.468;13.560;2024-02-21T03:59:23;6.50;82.00
63317;DHT22;49822;41.468;13.560;2024-02-21T04:01:53;6.60;81.50
63317;DHT22;49822;41.468;13.560;2024-02-21T04:04:19;6.50;81.50
63317;DHT22;49822;41.468;13.560;2024-02-21T04:06:51;6.80;81.40
63317;DHT22;49822;41.468;13.560;2024-02-21T04:09:18;6.80;80.90
63317;DHT22;49822;41.468;13.560;2024-02-21T04:11:44;6.90;80.50
63317;DHT22;49822;41.468;13.560;2024-02-21T04:14:10;6.90;80.30
63317;DHT22;49822;41.468;13.560;2024-02-21T04:16:38;6.80;80.40
63317;DHT22;49822;41.468;13.560;2024-02-21T04:19:06;6.80;80.40
63317;DHT22;49822;41.468;13.560;2024-02-21T04:21:32;6.80;80.50
63317;DHT22;49822;41.468;13.560;2024-02-21T04:23:58;6.70;80.80
63317;DHT22;49822;41.468;13.560;2024-02-21T04:26:25;6.80;80.80
63317;DHT22;49822;41.468;13.560;2024-02-21T04:28:51;6.90;80.70
63317;DHT22;49822;41.468;13.560;2024-02-21T04:31:17;7.00;80.60
63317;DHT22;49822;41.468;13.560;2024-02-21T04:33:43;7.00;80.20
63317;DHT22;49822;41.468;13.560;2024-02-21T04:36:09;7.00;80.10
63317;DHT22;49822;41.468;13.560;2024-02-21T04:38:36;7.00;79.90
63317;DHT22;49822;41.468;13.560;2024-02-21T04:41:06;6.60;80.10
63317;DHT22;49822;41.468;13.560;2024-02-21T04:43:33;6.60;80.90
63317;DHT22;49822;41.468;13.560;2024-02-21T04:45:59;6.70;81.10
63317;DHT22;49822;41.468;13.560;2024-02-21T04:48:26;6.60;81.00
63317;DHT22;49822;41.468;13.560;2024-02-21T04:50:54;6.60;80.70
63317;DHT22;49822;41.468;13.560;2024-02-21T04:53:20;6.40;80.50
63317;DHT22;49822;41.468;13.560;2024-02-21T04:55:47;6.40;80.90
63317;DHT22;49822;41.468;13.560;2024-02-21T04:58:13;6.50;81.20
63317;DHT22;49822;41.468;13.560;2024-02-21T05:00:39;6.50;81.00
63317;DHT22;49822;41.468;13.560;2024-02-21T05:03:06;6.20;80.80
63317;DHT22;49822;41.468;13.560;2024-02-21T05:05:32;6.30;81.30
63317;DHT22;49822;41.468;13.560;2024-02-21T05:07:58;6.30;81.10
63317;DHT22;49822;41.468;13.560;2024-02-21T05:10:24;6.40;81.20
63317;DHT22;49822;41.468;13.560;2024-02-21T05:12:51;6.50;80.90
63317;DHT22;49822;41.468;13.560;2024-02-21T05:15:17;6.40;80.70
63317;DHT22;49822;41.468;13.560;2024-02-21T05:17:43;6.60;80.70
63317;DHT22;49822;41.468;13.560;2024-02-21T05:20:09;6.40;80.40
63317;DHT22;49822;41.468;13.560;2024-02-21T05:22:35;6.50;80.60
63317;DHT22;49822;41.468;13.560;2024-02-21T05:25:01;6.60;80.30
63317;DHT22;49822;41.468;13.560;2024-02-21T05:27:27;6.40;80.30
63317;DHT22;49822;41.468;13.560;2024-02-21T05:29:54;6.40;80.50
63317;DHT22;49822;41.468;13.560;2024-02-21T05:32:34;6.40;80.60
63317;DHT22;49822;41.468;13.560;2024-02-21T05:35:09;6.50;80.90
63317;DHT22;49822;41.468;13.560;2024-02-21T05:37:35;6.40;80.60
63317;DHT22;49822;41.468;13.560;2024-02-21T05:40:06;6.50;80.60
63317;DHT22;49822;41.468;13.560;2024-02-21T05:42:33;6.50;80.60
63317;DHT22;49822;41.468;13.560;2024-02-21T05:44:59;6.50;80.40
63317;DHT22;49822;41.468;13.560;2024-02-21T05:47:25;6.70;80.00
63317;DHT22;49822;41.468;13.560;2024-02-21T05:49:51;6.40;80.10
63317;DHT22;49822;41.468;13.560;2024-02-21T05:52:21;5.90;81.00
63317;DHT22;49822;41.468;13.560;2024-02-21T05:54:49;5.70;81.70
63317;DHT22;49822;41.468;13.560;2024-02-21T05:57:31;5.70;82.20
63317;DHT22;49822;41.468;13.560;2024-02-21T05:59:57;5.70;82.00
63317;DHT22;49822;41.468;13.560;2024-02-21T06:02:23;5.90;82.00
63317;DHT22;49822;41.468;13.560;2024-02-21T06:04:49;5.80;82.00
63317;DHT22;49822;41.468;13.560;2024-02-21T06:07:15;5.80;81.90
63317;DHT22;49822;41.468;13.560;2024-02-21T06:09:42;6.20;81.80
63317;DHT22;49822;41.468;13.560;2024-02-21T06:12:08;6.40;81.70
63317;DHT22;49822;41.468;13.560;2024-02-21T06:14:34;6.50;81.20
63317;DHT22;49822;41.468;13.560;2024-02-21T06:17:00;6.70;81.00
63317;DHT22;49822;41.468;13.560;2024-02-21T06:19:27;6.60;80.80
63317;DHT22;49822;41.468;13.560;2024-02-21T06:21:53;6.80;80.20
63317;DHT22;49822;41.468;13.560;2024-02-21T06:24:19;6.60;80.10
63317;DHT22;49822;41.468;13.560;2024-02-21T06:26:45;6.40;80.30
63317;DHT22;49822;41.468;13.560;2024-02-21T06:29:11;6.40;80.40
63317;DHT22;49822;41.468;13.560;2024-02-21T06:31:40;6.50;80.50
63317;DHT22;49822;41.468;13.560;2024-02-21T06:34:06;6.50;80.50
63317;DHT22;49822;41.468;13.560;2024-02-21T06:36:32;6.40;80.50
63317;DHT22;49822;41.468;13.560;2024-02-21T06:38:59;6.30;80.10
63317;DHT22;49822;41.468;13.560;2024-02-21T06:41:25;6.00;80.60
63317;DHT22;49822;41.468;13.560;2024-02-21T06:44:16;6.10;81.10
63317;DHT22;49822;41.468;13.560;2024-02-21T06:47:08;5.60;81.70
63317;DHT22;49822;41.468;13.560;2024-02-21T06:49:50;5.30;83.30
63317;DHT22;49822;41.468;13.560;2024-02-21T06:52:34;5.40;84.10
63317;DHT22;49822;41.468;13.560;2024-02-21T06:55:16;5.50;84.30
63317;DHT22;49822;41.468;13.560;2024-02-21T06:58:11;5.80;84.50
63317;DHT22;49822;41.468;13.560;2024-02-21T07:01:09;6.20;83.90
63317;DHT22;49822;41.468;13.560;2024-02-21T07:04:10;6.50;82.90
63317;DHT22;49822;41.468;13.560;2024-02-21T07:06:58;6.80;82.60
63317;DHT22;49822;41.468;13.560;2024-02-21T07:09:26;7.00;82.10
63317;DHT22;49822;41.468;13.560;2024-02-21T07:11:57;7.20;81.90
63317;DHT22;49822;41.468;13.560;2024-02-21T07:14:37;7.40;81.90
63317;DHT22;49822;41.468;13.560;2024-02-21T07:17:04;7.70;81.60
63317;DHT22;49822;41.468;13.560;2024-02-21T07:19:46;7.70;81.10
63317;DHT22;49822;41.468;13.560;2024-02-21T07:22:50;7.80;80.90
63317;DHT22;49822;41.468;13.560;2024-02-21T07:25:36;8.10;80.70
63317;DHT22;49822;41.468;13.560;2024-02-21T07:28:22;8.30;80.60
63317;DHT22;49822;41.468;13.560;2024-02-21T07:31:11;8.40;80.40
63317;DHT22;49822;41.468;13.560;2024-02-21T07:33:46;8.50;80.20
63317;DHT22;49822;41.468;13.560;2024-02-21T07:36:44;8.70;79.70
63317;DHT22;49822;41.468;13.560;2024-02-21T07:39:43;9.00;79.10
63317;DHT22;49822;41.468;13.560;2024-02-21T07:42:23;9.10;78.60
63317;DHT22;49822;41.468;13.560;2024-02-21T07:44:51;9.30;78.90
63317;DHT22;49822;41.468;13.560;2024-02-21T07:47:33;9.50;78.90
63317;DHT22;49822;41.468;13.560;2024-02-21T07:50:28;9.70;79.40
63317;DHT22;49822;41.468;13.560;2024-02-21T07:53:06;9.80;79.30
63317;DHT22;49822;41.468;13.560;2024-02-21T07:55:32;10.00;79.10
63317;DHT22;49822;41.468;13.560;2024-02-21T07:57:59;10.20;78.80
63317;DHT22;49822;41.468;13.560;2024-02-21T08:00:27;10.30;78.60
63317;DHT22;49822;41.468;13.560;2024-02-21T08:02:57;10.30;77.60
63317;DHT22;49822;41.468;13.560;2024-02-21T08:05:24;10.50;77.60
63317;DHT22;49822;41.468;13.560;2024-02-21T08:07:50;10.60;77.70
63317;DHT22;49822;41.468;13.560;2024-02-21T08:10:16;10.80;77.60
63317;DHT22;49822;41.468;13.560;2024-02-21T08:12:42;10.90;77.40
63317;DHT22;49822;41.468;13.560;2024-02-21T08:15:09;11.00;77.50
63317;DHT22;49822;41.468;13.560;2024-02-21T08:17:37;10.90;78.20
63317;DHT22;49822;41.468;13.560;2024-02-21T08:20:05;11.00;77.90
63317;DHT22;49822;41.468;13.560;2024-02-21T08:22:33;11.10;77.90
63317;DHT22;49822;41.468;13.560;2024-02-21T08:24:59;11.20;77.80
63317;DHT22;49822;41.468;13.560;2024-02-21T08:27:25;11.30;77.80
63317;DHT22;49822;41.468;13.560;2024-02-21T08:29:51;11.40;77.60
63317;DHT22;49822;41.468;13.560;2024-02-21T08:32:18;11.50;77.50
63317;DHT22;49822;41.468;13.560;2024-02-21T08:34:44;11.60;77.10
63317;DHT22;49822;41.468;13.560;2024-02-21T08:37:10;11.70;77.50
63317;DHT22;49822;41.468;13.560;2024-02-21T08:39:36;11.90;77.80
63317;DHT22;49822;41.468;13.560;2024-02-21T08:42:03;12.10;77.60
63317;DHT22;49822;41.468;13.560;2024-02-21T08:44:29;12.10;77.30
63317;DHT22;49822;41.468;13.560;2024-02-21T08:46:55;12.30;76.80
63317;DHT22;49822;41.468;13.560;2024-02-21T08:49:22;12.60;76.20
63317;DHT22;49822;41.468;13.560;2024-02-21T08:51:48;12.60;75.60
63317;DHT22;49822;41.468;13.560;2024-02-21T08:54:14;12.90;74.60
63317;DHT22;49822;41.468;13.560;2024-02-21T08:56:40;13.00;73.60
63317;DHT22;49822;41.468;13.560;2024-02-21T08:59:06;13.10;74.20
63317;DHT22;49822;41.468;13.560;2024-02-21T09:01:32;13.30;73.30
63317;DHT22;49822;41.468;13.560;2024-02-21T09:04:00;13.40;73.20
63317;DHT22;49822;41.468;13.560;2024-02-21T09:06:26;13.70;73.10
63317;DHT22;49822;41.468;13.560;2024-02-21T09:08:56;13.80;71.60
63317;DHT22;49822;41.468;13.560;2024-02-21T09:11:23;13.80;70.80
63317;DHT22;49822;41.468;13.560;2024-02-21T09:13:49;14.10;70.90
63317;DHT22;49822;41.468;13.560;2024-02-21T09:16:15;14.20;69.90
63317;DHT22;49822;41.468;13.560;2024-02-21T09:18:41;14.20;69.10
63317;DHT22;49822;41.468;13.560;2024-02-21T09:21:08;14.40;69.00
63317;DHT22;49822;41.468;13.560;2024-02-21T09:23:34;14.50;68.60
63317;DHT22;49822;41.468;13.560;2024-02-21T09:26:00;14.70;69.00
63317;DHT22;49822;41.468;13.560;2024-02-21T09:28:29;15.00;68.20
63317;DHT22;49822;41.468;13.560;2024-02-21T09:30:55;15.00;67.10
63317;DHT22;49822;41.468;13.560;2024-02-21T09:33:21;15.30;67.10
63317;DHT22;49822;41.468;13.560;2024-02-21T09:35:47;15.30;66.90
63317;DHT22;49822;41.468;13.560;2024-02-21T09:38:14;15.50;65.60
63317;DHT22;49822;41.468;13.560;2024-02-21T09:40:40;15.60;64.80
63317;DHT22;49822;41.468;13.560;2024-02-21T09:43:08;15.60;64.50
63317;DHT22;49822;41.468;13.560;2024-02-21T09:45:35;15.60;64.60
63317;DHT22;49822;41.468;13.560;2024-02-21T09:50:43;15.70;65.00
63317;DHT22;49822;41.468;13.560;2024-02-21T09:53:12;15.80;64.80
63317;DHT22;49822;41.468;13.560;2024-02-21T09:55:43;15.90;64.10
63317;DHT22;49822;41.468;13.560;2024-02-21T09:58:09;15.90;63.10
63317;DHT22;49822;41.468;13.560;2024-02-21T10:00:36;16.00;63.00
63317;DHT22;49822;41.468;13.560;2024-02-21T10:03:04;16.20;63.10
63317;DHT22;49822;41.468;13.560;2024-02-21T10:05:34;16.30;63.40
63317;DHT22;49822;41.468;13.560;2024-02-21T10:08:02;16.50;61.80
63317;DHT22;49822;41.468;13.560;2024-02-21T10:10:28;16.70;60.10
63317;DHT22;49822;41.468;13.560;2024-02-21T10:12:56;16.70;58.20
63317;DHT22;49822;41.468;13.560;2024-02-21T10:15:23;16.80;55.90
63317;DHT22;49822;41.468;13.560;2024-02-21T10:18:02;17.10;57.90
63317;DHT22;49822;41.468;13.560;2024-02-21T10:20:29;17.20;56.40
63317;DHT22;49822;41.468;13.560;2024-02-21T10:23:05;17.50;58.90
63317;DHT22;49822;41.468;13.560;2024-02-21T10:25:38;17.70;57.10
63317;DHT22;49822;41.468;13.560;2024-02-21T10:31:24;17.60;54.30
63317;DHT22;49822;41.468;13.560;2024-02-21T10:34:00;17.80;53.30
63317;DHT22;49822;41.468;13.560;2024-02-21T10:36:29;18.10;55.00
63317;DHT22;49822;41.468;13.560;2024-02-21T10:38:55;18.30;54.20
63317;DHT22;49822;41.468;13.560;2024-02-21T10:41:22;18.30;53.90
63317;DHT22;49822;41.468;13.560;2024-02-21T10:43:53;18.60;54.70
63317;DHT22;49822;41.468;13.560;2024-02-21T10:46:22;19.10;55.60
63317;DHT22;49822;41.468;13.560;2024-02-21T10:48:53;19.40;54.70
63317;DHT22;49822;41.468;13.560;2024-02-21T10:51:30;19.90;55.00
63317;DHT22;49822;41.468;13.560;2024-02-21T10:56:43;20.20;51.50
63317;DHT22;49822;41.468;13.560;2024-02-21T10:59:09;20.60;52.10
63317;DHT22;49822;41.468;13.560;2024-02-21T11:01:35;20.90;53.20
63317;DHT22;49822;41.468;13.560;2024-02-21T11:04:04;21.10;52.50
63317;DHT22;49822;41.468;13.560;2024-02-21T11:06:31;21.30;51.30
63317;DHT22;49822;41.468;13.560;2024-02-21T11:09:05;21.60;53.10
63317;DHT22;49822;41.468;13.560;2024-02-21T11:11:35;21.90;52.80
63317;DHT22;49822;41.468;13.560;2024-02-21T11:14:08;22.00;50.90
63317;DHT22;49822;41.468;13.560;2024-02-21T11:16:39;21.80;49.50
63317;DHT22;49822;41.468;13.560;2024-02-21T11:19:22;21.40;49.70
63317;DHT22;49822;41.468;13.560;2024-02-21T11:21:50;21.30;48.30
63317;DHT22;49822;41.468;13.560;2024-02-21T11:24:34;21.30;48.30
63317;DHT22;49822;41.468;13.560;2024-02-21T11:27:11;21.20;50.70
63317;DHT22;49822;41.468;13.560;2024-02-21T11:29:43;21.30;51.80
63317;DHT22;49822;41.468;13.560;2024-02-21T11:32:15;21.30;51.10
63317;DHT22;49822;41.468;13.560;2024-02-21T11:37:29;21.10;49.00
63317;DHT22;49822;41.468;13.560;2024-02-21T11:39:56;21.30;50.60
63317;DHT22;49822;41.468;13.560;2024-02-21T11:42:22;21.50;50.00
63317;DHT22;49822;41.468;13.560;2024-02-21T11:44:50;21.30;50.40
63317;DHT22;49822;41.468;13.560;2024-02-21T11:47:16;21.30;50.80
63317;DHT22;49822;41.468;13.560;2024-02-21T11:49:45;21.40;51.10
63317;DHT22;49822;41.468;13.560;2024-02-21T11:52:12;21.70;52.20
63317;DHT22;49822;41.468;13.560;2024-02-21T11:54:41;22.00;52.20
63317;DHT22;49822;41.468;13.560;2024-02-21T11:57:07;22.00;52.40
63317;DHT22;49822;41.468;13.560;2024-02-21T11:59:34;22.20;51.20
63317;DHT22;49822;41.468;13.560;2024-02-21T12:02:01;22.20;50.40
63317;DHT22;49822;41.468;13.560;2024-02-21T12:04:29;22.40;51.60
63317;DHT22;49822;41.468;13.560;2024-02-21T12:06:59;22.40;49.30
63317;DHT22;49822;41.468;13.560;2024-02-21T12:09:26;22.10;48.50
63317;DHT22;49822;41.468;13.560;2024-02-21T12:12:05;21.80;48.10
63317;DHT22;49822;41.468;13.560;2024-02-21T12:14:33;21.70;48.80
63317;DHT22;49822;41.468;13.560;2024-02-21T12:17:00;21.60;48.70
63317;DHT22;49822;41.468;13.560;2024-02-21T12:19:29;21.90;50.80
63317;DHT22;49822;41.468;13.560;2024-02-21T12:21:55;22.10;49.10
63317;DHT22;49822;41.468;13.560;2024-02-21T12:24:25;21.90;47.60
63317;DHT22;49822;41.468;13.560;2024-02-21T12:26:51;21.60;48.00
63317;DHT22;49822;41.468;13.560;2024-02-21T12:29:21;21.70;48.60
63317;DHT22;49822;41.468;13.560;2024-02-21T12:31:49;21.70;47.60
63317;DHT22;49822;41.468;13.560;2024-02-21T12:34:16;21.90;48.50
63317;DHT22;49822;41.468;13.560;2024-02-21T12:36:44;22.00;46.80
63317;DHT22;49822;41.468;13.560;2024-02-21T12:39:12;22.20;47.30
63317;DHT22;49822;41.468;13.560;2024-02-21T12:41:39;22.30;45.30
63317;DHT22;49822;41.468;13.560;2024-02-21T12:44:10;22.40;48.70
63317;DHT22;49822;41.468;13.560;2024-02-21T12:46:40;22.60;46.50
63317;DHT22;49822;41.468;13.560;2024-02-21T12:49:06;22.40;47.30
63317;DHT22;49822;41.468;13.560;2024-02-21T12:51:34;22.40;47.40
63317;DHT22;49822;41.468;13.560;2024-02-21T12:54:00;22.60;46.80
63317;DHT22;49822;41.468;13.560;2024-02-21T12:56:28;22.80;47.30
63317;DHT22;49822;41.468;13.560;2024-02-21T12:58:57;22.70;46.00
63317;DHT22;49822;41.468;13.560;2024-02-21T13:01:23;22.80;46.70
63317;DHT22;49822;41.468;13.560;2024-02-21T13:03:50;22.90;46.60
63317;DHT22;49822;41.468;13.560;2024-02-21T13:06:16;22.90;46.80
63317;DHT22;49822;41.468;13.560;2024-02-21T13:08:43;23.30;47.00
63317;DHT22;49822;41.468;13.560;2024-02-21T13:11:10;23.30;46.90
63317;DHT22;49822;41.468;13.560;2024-02-21T13:13:36;23.20;46.30
63317;DHT22;49822;41.468;13.560;2024-02-21T13:16:03;23.30;47.30
63317;DHT22;49822;41.468;13.560;2024-02-21T13:18:29;23.50;46.70
63317;DHT22;49822;41.468;13.560;2024-02-21T13:20:55;23.50;46.50
63317;DHT22;49822;41.468;13.560;2024-02-21T13:23:22;23.50;47.10
63317;DHT22;49822;41.468;13.560;2024-02-21T13:25:48;23.50;45.90
63317;DHT22;49822;41.468;13.560;2024-02-21T13:28:15;23.20;45.80
63317;DHT22;49822;41.468;13.560;2024-02-21T13:30:43;23.20;46.10
63317;DHT22;49822;41.468;13.560;2024-02-21T13:33:09;23.30;46.80
63317;DHT22;49822;41.468;13.560;2024-02-21T13:35:35;23.70;46.00
63317;DHT22;49822;41.468;13.560;2024-02-21T13:38:03;23.70;45.20
63317;DHT22;49822;41.468;13.560;2024-02-21T13:40:29;23.80;44.00
63317;DHT22;49822;41.468;13.560;2024-02-21T13:42:55;23.90;45.00
63317;DHT22;49822;41.468;13.560;2024-02-21T13:45:23;24.00;45.10
63317;DHT22;49822;41.468;13.560;2024-02-21T13:47:51;23.60;44.50
63317;DHT22;49822;41.468;13.560;2024-02-21T13:50:18;23.70;44.60
63317;DHT22;49822;41.468;13.560;2024-02-21T13:52:54;23.20;45.00
63317;DHT22;49822;41.468;13.560;2024-02-21T13:55:20;23.30;46.50
63317;DHT22;49822;41.468;13.560;2024-02-21T13:57:48;23.10;46.40
63317;DHT22;49822;41.468;13.560;2024-02-21T14:00:15;23.10;46.40
63317;DHT22;49822;41.468;13.560;2024-02-21T14:02:41;22.60;48.50
63317;DHT22;49822;41.468;13.560;2024-02-21T14:05:07;22.30;49.70
63317;DHT22;49822;41.468;13.560;2024-02-21T14:07:34;22.10;48.80
63317;DHT22;49822;41.468;13.560;2024-02-21T14:10:00;22.20;50.30
63317;DHT22;49822;41.468;13.560;2024-02-21T14:12:27;21.90;51.40
63317;DHT22;49822;41.468;13.560;2024-02-21T14:14:53;21.70;50.80
63317;DHT22;49822;41.468;13.560;2024-02-21T14:17:19;21.70;51.50
63317;DHT22;49822;41.468;13.560;2024-02-21T14:19:46;21.50;52.30
63317;DHT22;49822;41.468;13.560;2024-02-21T14:22:11;21.50;52.20
63317;DHT22;49822;41.468;13.560;2024-02-21T14:24:38;21.40;52.20
63317;DHT22;49822;41.468;13.560;2024-02-21T14:27:04;21.20;53.10
63317;DHT22;49822;41.468;13.560;2024-02-21T14:29:30;21.30;53.10
63317;DHT22;49822;41.468;13.560;2024-02-21T14:31:56;21.50;54.00
63317;DHT22;49822;41.468;13.560;2024-02-21T14:34:23;21.80;53.90
63317;DHT22;49822;41.468;13.560;2024-02-21T14:36:49;21.90;53.60
63317;DHT22;49822;41.468;13.560;2024-02-21T14:39:15;22.30;53.80
63317;DHT22;49822;41.468;13.560;2024-02-21T14:41:41;22.60;53.00
63317;DHT22;49822;41.468;13.560;2024-02-21T14:44:07;22.90;52.70
63317;DHT22;49822;41.468;13.560;2024-02-21T14:46:36;23.70;51.30
63317;DHT22;49822;41.468;13.560;2024-02-21T14:49:03;24.30;51.20
63317;DHT22;49822;41.468;13.560;2024-02-21T14:51:29;24.60;50.40
63317;DHT22;49822;41.468;13.560;2024-02-21T14:53:56;24.50;50.60
63317;DHT22;49822;41.468;13.560;2024-02-21T14:56:23;25.10;49.60
63317;DHT22;49822;41.468;13.560;2024-02-21T14:58:49;25.30;50.10
63317;DHT22;49822;41.468;13.560;2024-02-21T15:01:15;25.00;49.40
63317;DHT22;49822;41.468;13.560;2024-02-21T15:03:42;25.20;49.40
63317;DHT22;49822;41.468;13.560;2024-02-21T15:06:09;25.60;49.20
63317;DHT22;49822;41.468;13.560;2024-02-21T15:08:35;25.60;49.00
63317;DHT22;49822;41.468;13.560;2024-02-21T15:11:02;25.70;49.40
63317;DHT22;49822;41.468;13.560;2024-02-21T15:13:29;25.50;49.00
63317;DHT22;49822;41.468;13.560;2024-02-21T15:15:56;25.20;50.10
63317;DHT22;49822;41.468;13.560;2024-02-21T15:18:22;25.20;50.50
63317;DHT22;49822;41.468;13.560;2024-02-21T15:20:49;25.40;50.50
63317;DHT22;49822;41.468;13.560;2024-02-21T15:23:16;25.80;50.70
63317;DHT22;49822;41.468;13.560;2024-02-21T15:25:43;24.60;51.90
63317;DHT22;49822;41.468;13.560;2024-02-21T15:28:09;23.60;54.40
63317;DHT22;49822;41.468;13.560;2024-02-21T15:30:36;23.90;53.40
63317;DHT22;49822;41.468;13.560;2024-02-21T15:33:04;24.50;53.10
63317;DHT22;49822;41.468;13.560;2024-02-21T15:35:31;24.70;53.20
63317;DHT22;49822;41.468;13.560;2024-02-21T15:37:57;24.00;53.50
63317;DHT22;49822;41.468;13.560;2024-02-21T15:40:27;22.80;55.80